PAOR

Details ICAO PAOR (ORT)
Name NORTHWAY
Region USA (Alaska)
Timezone America/Anchorage (UTC-9.0)
Plans Departing 2
Arriving 11
Stats Elevation 1,716 ft / 523 m (AMSL)
Location 62.961333° -141.929136°
Runways 1
Magnetic Variation 18.943° E
Sunrise 2017-12-10 18:52:55 UTC / 2017-12-10 09:52:55 Local
Sunset 2017-12-10 23:51:24 UTC / 2017-12-10 14:51:24 Local
Advertisement - Login to hide

Runways

ID Width Length Bearing (true) Bearing (mag) Surface Threshold Offset Overrun Length
04 100 ft / 30 m 3,293 ft / 1,004 m 73.97° 55.03° Gravel 0 ft / 0 m 1,353 ft / 412 m
22 100 ft / 30 m 3,293 ft / 1,004 m 253.99° 235.05° Gravel 0 ft / 0 m 1,000 ft / 305 m

Map

Weather


0- 5 10 15 20 25 30 35+ Temperature / ° C

Clouds and Precipitation
Forecast for 2017-12-11 00:00 UTC. Updated an hour ago

Ground ~20,000 ft ~40,000 ft Winds

METAR

PAOR 102353Z 00000KT 2SM BR BCFG OVC001 M17/M18 A2985

TAF

PAOR 102329Z 1100/1124 00000KT 1/4SM FZFG VV001 WS020/12035KT FM110600 00000KT 6SM BR SCT001 BKN050 WS020/12035KT

Frequencies

Recorded 135.40 MHz ASOS
Unicom 123.60 MHz CTAF
Warning: Do not use this data for real-world aviation or navigation. No guarantee of current accuracy is given.